Kezdőlap
METAR-TAF:

METAR-TAF

Repülőterek :

Sanikiluaq, Nunavut, Kanada

földrajzi szélesség: 56-32N, földrajzi hosszúság: 079-15W, magasság: 32 m

Jelenlegi meteorológiai megfigyelések

A jelentés 4 órával és 6 perccel ezelõtt készült, 23:00 UTC
Északi szél 18 kt
Hőmérséklet -22°C
Páratartalom 76%
Légköri nyomás 1020 hPa
Látótávolság: 24.1 km
Kevés felhő 22000 lábon
Jégtű, alacsony hófúvás

METAR: CYSK 272300Z 01018KT 15SM IC DRSN FEW220 M22/M25 A3011 RMK CS2 SN CVR/NIL LAST OBS/NEXT 281300UTC SLP204

Idő: 22:06 (03:06 UTC)


TAF: hiányzik

Meteorológiai megfigyelések és előrejelzések több, mint 4000 repülőtéren (METAR és TAF jelentéseket).

A térképen piros és sárga pontok jelzik az elérhető meteorológiai állomásokat.

Mozgassa az egeret a pont fölött, hogy megjelenjen az állomás neve.

Azután kattintson az időjárási megfigyelések és előrejelzések megtekintéséhez.

A térkép megváltoztatása: kattintson a fekete keresztel jelölt zöld gombra ráközelítéshez, a vonallal jelölt zöld gombra távolításhoz, vagy a zöld nyilakra a szomszédos térképek eléréséhez.


METAR-TAF: